Latest Coastal Weather Observations for Truscott

IDD60701

Issued at 11:55 am CST Wednesday 24 September 2014 (issued every 10 minutes, with the page automatically refreshed every 10 minutes)

About coastal observations | Map of coastal stations | Coastal observations for NT | Marine services | Other Formats
Station Details ID: 001020 Name: TRUSCOTT Lat: -14.09 Lon: 126.39 Height: 51.0 m
Data from the previous 72 hours. | See also: Recent months at Truscott
Date/Time
CST
Temp

°C
Wind Pressure Rain
since 9am
mm
Weather Cloud Vis
km
Sea
Height
m
Swell
Dir
 
Speed
knots
Gust
knots
hPa Trend Height
m
Period
s
Dir
24/11:30am 32.6 ESE 8 13 1013.7 - 0.0 - - 10 - - - -
24/11:00am 31.9 ESE 7 12 1013.9 - 0.0 - - 10 - - - -
24/10:30am 30.6 ESE 7 10 1013.5 - 0.0 - - 10 - - - -
24/10:00am 29.2 SE 7 11 1013.9 - 0.0 - - 10 - - - -
24/09:30am 28.5 E 5 9 1014.0 - 0.0 - - 10 - - - -
24/09:00am 26.8 E 2 5 1013.8 - 0.0 - - 10 - - - -
24/08:46am 26.7 CALM 0 3 1013.7 - 0.0 - - 10 - - - -
24/08:30am 25.7 SE 1 4 1013.6 - 0.0 - - 6 - - - -
24/08:16am 25.3 SSE 1 4 1013.4 - 0.0 - - 5 - - - -
24/08:00am 24.8 CALM 0 0 1013.2 - 0.0 - - 8 - - - -
24/07:50am 23.7 SSE 2 3 1013.0 - 0.0 - - 7 - - - -
24/07:30am 22.7 CALM 0 0 1012.3 - 0.0 - - 5 - - - -
24/07:00am 22.4 SE 2 3 1012.4 - 0.0 - Partly cloudy 5 - - - -
24/06:59am 22.4 SE 2 3 1012.4 - 0.0 - Partly cloudy 5 - - - -
24/06:50am 22.8 SE 3 4 1012.2 - 0.0 - Partly cloudy 6 - - - -
24/06:32am 22.5 SSE 3 4 1012.1 - 0.0 - - 5 - - - -
24/06:30am 22.5 SSE 3 4 1012.1 - 0.0 - Partly cloudy 6 - - - -
24/06:22am 22.8 S 3 4 1012.0 - 0.0 - Partly cloudy 8 - - - -
24/06:19am 22.8 S 3 4 1012.0 - 0.0 - Partly cloudy 8 - - - -
24/06:07am 23.3 SW 1 5 1012.0 - 0.0 - Partly cloudy 5 - - - -
24/06:00am 22.8 CALM 0 0 1012.0 - 0.0 - Partly cloudy 6 - - - -
24/05:51am 22.3 CALM 0 0 1012.1 - 0.0 - Partly cloudy 9 - - - -
24/05:30am 21.8 W 0 0 1011.9 - 0.0 - - 7 - - - -
24/05:00am 22.5 CALM 0 0 1011.7 - 0.0 - - 9 - - - -
24/04:30am 22.5 CALM 0 0 1011.2 - 0.0 - - 7 - - - -
24/04:00am 22.8 CALM 0 0 1011.8 - 0.0 - - 9 - - - -
24/03:30am 23.2 CALM 0 0 1011.8 - 0.0 - - 10 - - - -
24/03:00am 23.6 CALM 0 0 1012.0 - 0.0 - Partly cloudy 10 - - - -
24/02:30am 24.4 W 3 5 1012.1 - 0.0 - Partly cloudy 10 - - - -
24/02:00am 24.2 WNW 3 4 1012.3 - 0.0 - - 10 - - - -
24/01:30am 24.4 NW 3 5 1012.1 - 0.0 - - 10 - - - -
24/01:00am 24.7 WNW 3 4 1012.7 - 0.0 - - 10 - - - -
24/12:30am 24.6 WNW 4 5 1012.9 - 0.0 - - 10 - - - -
24/12:00am 24.6 NW 4 5 1013.1 - 0.0 - - 10 - - - -
 
Date/Time
CST
Temp

°C
Wind Pressure Rain
since 9am
mm
Weather Cloud Vis
km
Sea
Height
m
Swell
Dir
 
Speed
knots
Gust
knots
hPa Trend Height
m
Period
s
Dir
23/11:30pm 24.8 NNW 4 4 1013.2 - 0.0 - - 10 - - - -
23/11:00pm 25.1 NW 3 4 1013.2 - 0.0 - - 10 - - - -
23/10:30pm 25.5 NNW 4 5 1012.9 - 0.0 - Mostly clear 10 - - - -
23/10:00pm 26.0 NW 4 5 1013.3 - 0.0 - Partly cloudy 10 - - - -
23/09:58pm 26.0 NW 4 6 1013.3 - 0.0 - Partly cloudy 10 - - - -
23/09:41pm 26.3 W 4 6 1013.4 - 0.0 - Partly cloudy 10 - - - -
23/09:30pm 26.1 W 5 8 1013.0 - 0.0 - Partly cloudy 10 - - - -
23/09:00pm 26.0 WNW 4 6 1012.6 - 0.0 - Partly cloudy 10 - - - -
23/08:30pm 26.1 NW 4 7 1012.3 - 0.0 - Partly cloudy 10 - - - -
23/08:00pm 26.4 WNW 7 9 1011.9 - 0.0 - - 10 - - - -
23/07:30pm 26.9 W 7 11 1011.0 - 0.0 - - 10 - - - -
23/07:00pm 27.1 WNW 8 11 1011.1 - 0.0 - - 10 - - - -
23/06:30pm 27.6 NW 7 11 1010.7 - 0.0 - - 10 - - - -
23/06:00pm 28.5 NW 9 15 1010.5 - 0.0 - - 10 - - - -
23/05:30pm 28.6 WNW 10 18 1009.9 - 0.0 - - 10 - - - -
23/05:00pm 28.8 NW 11 17 1009.9 - 0.0 - - 10 - - - -
23/04:30pm 29.9 NW 10 15 1009.5 - 0.0 - - 10 - - - -
23/04:00pm 30.3 NNW 9 15 1010.1 - 0.0 - - 10 - - - -
23/03:30pm 30.0 NNW 12 17 1010.5 - 0.0 - - 10 - - - -
23/03:00pm 31.6 NNW 9 14 1010.7 - 0.0 - - 10 - - - -
23/02:30pm 31.7 NW 8 13 1011.2 - 0.0 - - 10 - - - -
23/02:00pm 31.3 WNW 10 15 1011.4 - 0.0 - - 10 - - - -
23/01:30pm 30.9 WNW 10 14 1011.5 - 0.0 - - 10 - - - -
23/01:00pm 31.4 WNW 10 13 1012.5 - 0.0 - - 10 - - - -
23/12:30pm 32.0 WNW 8 12 1012.9 - 0.0 - - 10 - - - -
23/12:00pm 31.6 W 8 11 1013.3 - 0.0 - - 10 - - - -
23/11:30am 30.8 W 8 13 1013.5 - 0.0 - - 10 - - - -
23/11:00am 29.8 W 9 12 1013.8 - 0.0 - Partly cloudy 10 - - - -
23/10:30am 29.3 W 7 12 1013.4 - 0.0 - Mostly clear 10 - - - -
23/10:00am 28.2 WNW 8 11 1014.0 - 0.0 - Partly cloudy 10 - - - -
23/09:30am 27.7 WNW 7 11 1013.7 - 0.0 - - 10 - - - -
23/09:00am 26.7 W 7 9 1013.5 - 0.0 - Partly cloudy 10 - - - -
23/08:30am 26.5 W 7 9 1013.4 - 0.0 - - 10 - - - -
23/08:00am 25.5 N 2 4 1013.2 - 0.0 - - 10 - - - -
23/07:30am 24.9 WSW 2 5 1012.5 - 0.0 - Cloudy 10 - - - -
23/07:00am 24.8 SW 4 6 1012.8 - 0.0 - Partly cloudy 10 - - - -
23/06:30am 24.7 W 3 5 1012.8 - 0.0 - Partly cloudy 10 - - - -
23/06:00am 24.9 W 2 5 1012.4 - 0.0 - Partly cloudy 10 - - - -
23/05:30am 24.9 W 3 5 1012.5 - 0.0 - Partly cloudy 10 - - - -
23/05:00am 24.2 W 4 6 1012.1 - 0.0 - - 10 - - - -
23/04:30am 23.8 W 2 4 1011.3 - 0.0 - - 10 - - - -
23/04:00am 24.1 WSW 3 4 1011.6 - 0.0 - Partly cloudy 10 - - - -
23/03:30am 24.3 NW 4 6 1011.5 - 0.0 - - 10 - - - -
23/03:00am 24.4 W 4 6 1011.8 - 0.0 - - 10 - - - -
23/02:30am 24.8 WNW 5 6 1012.2 - 0.0 - - 10 - - - -
23/02:00am 24.4 WNW 3 4 1012.4 - 0.0 - - 10 - - - -
23/01:30am 24.9 W 4 6 1012.3 - 0.0 - - 10 - - - -
23/01:00am 24.6 WNW 3 4 1013.1 - 0.0 - - 10 - - - -
23/12:30am 24.8 W 4 5 1013.3 - 0.0 - - 10 - - - -
23/12:00am 24.8 W 3 4 1013.6 - 0.0 - - 10 - - - -
 
Date/Time
CST
Temp

°C
Wind Pressure Rain
since 9am
mm
Weather Cloud Vis
km
Sea
Height
m
Swell
Dir
 
Speed
knots
Gust
knots
hPa Trend Height
m
Period
s
Dir
22/11:30pm 25.3 W 4 6 1013.7 - 0.0 - - 10 - - - -
22/11:00pm 24.8 WNW 3 4 1013.8 - 0.0 - - 10 - - - -
22/10:30pm 24.9 WNW 4 6 1013.2 - 0.0 - - 10 - - - -
22/10:00pm 25.2 NW 4 5 1013.7 - 0.0 - - 10 - - - -
22/09:30pm 25.5 NW 4 7 1013.4 - 0.0 - - 10 - - - -
22/09:00pm 25.3 NW 4 6 1013.2 - 0.0 - - 10 - - - -
22/08:30pm 25.5 NNW 4 5 1012.9 - 0.0 - - 10 - - - -
22/08:00pm 25.8 NNW 4 6 1012.4 - 0.0 - - 10 - - - -
22/07:30pm 26.1 NNW 4 8 1011.4 - 0.0 - - 10 - - - -
22/07:00pm 26.7 NW 6 8 1011.6 - 0.0 - - 10 - - - -
22/06:30pm 27.4 NW 8 12 1011.2 - 0.0 - - 10 - - - -
22/06:00pm 28.0 NW 10 17 1011.0 - 0.0 - - 10 - - - -
22/05:30pm 28.9 NW 10 14 1010.8 - 0.0 - - 10 - - - -
22/05:00pm 29.8 NNW 9 13 1011.0 - 0.0 - - 10 - - - -
22/04:30pm 30.1 NW 10 16 1010.6 - 0.0 - - 10 - - - -
22/04:00pm 30.5 NNW 10 17 1011.4 - 0.0 - - 10 - - - -
22/03:30pm 30.3 NNW 10 15 1011.6 - 0.0 - - 10 - - - -
22/03:00pm 29.3 N 10 14 1012.0 - 0.0 - - 10 - - - -
22/02:30pm 30.6 N 10 15 1012.3 - 0.0 - - 10 - - - -
22/02:00pm 30.1 NNW 10 14 1012.6 - 0.0 - - 10 - - - -
22/01:30pm 30.7 NW 8 13 1012.5 - 0.0 - - 10 - - - -
22/01:00pm 30.3 N 8 12 1013.5 - 0.0 - - 10 - - - -
22/12:30pm 30.5 N 6 10 1014.0 - 0.0 - - 10 - - - -
22/12:00pm 29.8 NNW 8 13 1014.4 - 0.0 - - 10 - - - -
22/11:30am 30.2 N 7 12 1014.8 - 0.0 - - 10 - - - -
22/11:00am 31.3 NW 7 11 1015.0 - 0.0 - - 10 - - - -
22/10:30am 30.8 S 4 8 1014.4 - 0.0 - - 10 - - - -
22/10:00am 29.0 E 4 6 1015.2 - 0.0 - - 10 - - - -
22/09:30am 28.1 ESE 5 8 1015.1 - 0.0 - - 10 - - - -
22/09:00am 26.7 SW 7 10 1014.5 - 0.0 - - 10 - - - -
22/08:30am 25.6 SW 6 8 1014.2 - 0.0 - - 10 - - - -
22/08:00am 24.4 SW 5 6 1014.0 - 0.0 - - 10 - - - -
22/07:30am 22.2 S 1 5 1013.3 - 0.0 - - 10 - - - -
22/07:00am 21.3 CALM 0 0 1013.4 - 0.0 - - 10 - - - -
22/06:40am 21.2 CALM 0 0 1013.3 - 0.0 - - 10 - - - -
22/06:30am 21.6 CALM 0 0 1013.1 - 0.0 - - 5 - - - -
22/06:16am 21.7 CALM 0 0 1012.9 - 0.0 - - 5 - - - -
22/06:11am 21.7 CALM 0 0 1012.8 - 0.0 - - 8 - - - -
22/06:00am 22.3 CALM 0 0 1012.7 - 0.0 - - 4 - - - -
22/05:30am 22.9 WSW 2 4 1012.6 - 0.0 - - 3 - - - -
22/05:21am 23.0 W 2 3 1012.5 - 0.0 - - 4 - - - -
22/05:00am 24.0 WSW 4 6 1012.2 - 0.0 - - 10 - - - -
22/04:30am 24.1 W 4 6 1011.1 - 0.0 - - 10 - - - -
22/04:00am 24.2 WSW 5 7 1011.9 - 0.0 - - 10 - - - -
22/03:30am 24.1 W 6 8 1012.0 - 0.0 - - 10 - - - -
22/03:00am 24.1 W 6 8 1012.2 - 0.0 - - 10 - - - -
22/02:30am 22.9 W 4 6 1012.5 - 0.0 - - 10 - - - -
22/02:00am 22.2 CALM 0 3 1012.8 - 0.0 - - 10 - - - -
22/01:30am 23.3 W 3 4 1012.4 - 0.0 - - 10 - - - -
22/01:00am 23.5 W 3 4 1013.3 - 0.0 - - 10 - - - -
22/12:30am 22.6 W 3 4 1013.8 - 0.0 - - 10 - - - -
22/12:00am 22.7 W 1 4 1014.1 - 0.0 - - 10 - - - -
 
Date/Time
CST
Temp

°C
Wind Pressure Rain
since 9am
mm
Weather Cloud Vis
km
Sea
Height
m
Swell
Dir
 
Speed
knots
Gust
knots
hPa Trend Height
m
Period
s
Dir
21/11:30pm 23.0 W 3 4 1014.0 - 0.0 - - 10 - - - -
21/11:00pm 24.6 WSW 4 5 1014.1 - 0.0 - - 10 - - - -
21/10:30pm 23.9 WSW 3 4 1013.5 - 0.0 - - 10 - - - -
21/10:00pm 25.9 WSW 4 6 1013.9 - 0.0 - - 10 - - - -
21/09:30pm 26.4 WSW 4 6 1013.7 - 0.0 - - 10 - - - -
21/09:00pm 27.1 W 6 9 1013.5 - 0.0 - - 10 - - - -
21/08:30pm 27.3 W 6 9 1013.2 - 0.0 - - 10 - - - -
21/08:00pm 27.8 WNW 7 11 1012.9 - 0.0 - - 10 - - - -
21/07:30pm 28.2 WNW 6 9 1012.0 - 0.0 - - 10 - - - -
21/07:00pm 29.1 W 8 11 1012.2 - 0.0 - - 10 - - - -
21/06:30pm 29.9 WNW 8 13 1011.8 - 0.0 - - 10 - - - -
21/06:00pm 30.7 NW 7 12 1011.5 - 0.0 - - 10 - - - -
21/05:30pm 31.8 NW 8 13 1011.4 - 0.0 - - 10 - - - -
21/05:00pm 32.9 WNW 8 12 1011.4 - 0.0 - - 10 - - - -
21/04:30pm 33.2 W 10 14 1010.9 - 0.0 - - 10 - - - -
21/04:00pm 33.5 W 8 12 1011.5 - 0.0 - - 10 - - - -
21/03:30pm 33.5 W 8 12 1011.6 - 0.0 - - 10 - - - -
21/03:00pm 33.0 W 11 16 1011.8 - 0.0 - - 10 - - - -
21/02:30pm 34.5 NW 10 14 1012.1 - 0.0 - - 10 - - - -
21/02:00pm 34.5 WNW 8 13 1012.6 - 0.0 - - 10 - - - -
21/01:30pm 34.2 W 8 12 1012.7 - 0.0 - - 10 - - - -

Other Formats:

Comma delimited format used in spreadsheet applications
http://www.bom.gov.au/fwo/IDD60701/IDD60701.95101.axf

JavaScript Object Notation format (JSON) in row-major order
http://www.bom.gov.au/fwo/IDD60701/IDD60701.95101.json